B16 weather

Whitfords Airport
Weedsport, New York, United States

Public forecast

Using degrees Fahrenheit for public forecast. Weather courtesy of forecast.io.

Closest aviation weather report (METAR) to Whitfords Airport

Closest report is Oswego County Airport, 17.5 nm (32.5 km) NNE. Retrieved 2019/12/16 11:54 UTC (44 minutes ago):

KFZY 161154Z AUTO 00000KT 10SM OVC022 M04/M08 A3024 RMK AO2 SLP246 60000 70006 T10391083 11017 21039 53015

Closest aviation forecast (TAF) to Whitfords Airport

Closest forecast is Syracuse Hancock International Airport, 19.0 nm (35.3 km) E. Retrieved 2019/12/16 12:45 UTC (0 seconds ago):

TAF KSYR 161142Z 1612/1712 VRB04KT P6SM SCT025 BKN040 TEMPO 1612/1614 BKN028 FM161900 19005KT P6SM SCT120 BKN200 FM170100 13005KT P6SM FEW070 SCT100 BKN180 FM170900 VRB04KT 5SM -SN BR FEW020 BKN030 OVC040 FM171100 07005KT 2SM -SN BR FEW012 OVC018